Time;durP1;ratioP1;P1;durP2;ratioP2;P2;SDS_P1;SDS_P2;PMS_P1;PMS_P2;Temp;Humidity;BMP_temperature;BMP_pressure;BME280_temperature;BME280_humidity;BME280_pressure;Samples;Min_cycle;Max_cycle;Signal;HPM_P1;HPM_P2
2021/10/04 08:43:17;;;;;;;1.08;0.50;;;;;;;;;;7368635;19;132611;-14
2021/10/04 08:45:47;;;;;;;1.40;0.60;;;;;;;;;;7364610;19;153481;-14
2021/10/04 08:48:15;;;;;;;0.60;0.50;;;;;;;;;;7364646;19;161874;-13
2021/10/04 08:50:43;;;;;;;0.90;0.55;;;;;;;;;;7364281;19;162445;-13
2021/10/04 08:53:11;;;;;;;0.63;0.43;;;;;;;;;;7363968;19;153892;-13
2021/10/04 08:55:39;;;;;;;0.60;0.60;;;;;;;;;;7364641;19;153544;-14
2021/10/04 08:58:11;;;;;;;1.20;0.65;;;;;;;;;;7364385;19;161979;-14
2021/10/04 09:00:40;;;;;;;1.23;0.60;;;;;;;;;;7364266;19;162466;-12
2021/10/04 09:03:07;;;;;;;0.70;0.60;;;;;;;;;;7363504;19;153902;-15
2021/10/04 09:05:36;;;;;;;0.43;0.43;;;;;;;;;;7364642;19;153594;-14
2021/10/04 09:08:15;;;;;;;0.77;0.60;;;;;;;;;;7364147;19;161895;-15
2021/10/04 09:10:44;;;;;;;0.75;0.50;;;;;;;;;;7363555;19;162420;-15
2021/10/04 09:13:15;;;;;;;0.40;0.40;;;;;;;;;;7363037;19;153923;-14
2021/10/04 09:15:46;;;;;;;0.63;0.50;;;;;;;;;;7364135;19;153753;-13
2021/10/04 09:18:31;;;;;;;0.80;0.80;;;;;;;;;;7363738;19;161792;-13
2021/10/04 09:21:01;;;;;;;0.90;0.70;;;;;;;;;;7363580;19;162346;-14
2021/10/04 09:23:35;;;;;;;0.60;0.60;;;;;;;;;;7363834;19;154160;-14
2021/10/04 09:26:06;;;;;;;0.60;0.60;;;;;;;;;;7362472;19;153705;-15
2021/10/04 09:28:43;;;;;;;0.52;0.52;;;;;;;;;;7362179;19;161815;-13
2021/10/04 09:31:26;;;;;;;0.70;0.70;;;;;;;;;;7362788;19;162524;-13
2021/10/04 09:34:14;;;;;;;0.50;0.50;;;;;;;;;;7363654;19;154179;-15
2021/10/04 09:36:45;;;;;;;1.40;0.90;;;;;;;;;;7366106;19;153612;-14
2021/10/04 09:39:21;;;;;;;2.30;0.90;;;;;;;;;;7363046;19;161504;-14
2021/10/04 09:42:10;;;;;;;2.28;1.00;;;;;;;;;;7361629;19;162393;-15
2021/10/04 09:45:14;;;;;;;1.30;0.80;;;;;;;;;;7333950;19;154083;-14
2021/10/04 09:47:43;;;;;;;1.00;0.82;;;;;;;;;;7331269;19;154053;-14
2021/10/04 09:50:23;;;;;;;1.45;0.70;;;;;;;;;;7334895;19;161913;-16
2021/10/04 09:52:56;;;;;;;0.70;0.65;;;;;;;;;;7331560;19;162672;-15
2021/10/04 09:55:37;;;;;;;1.90;1.25;;;;;;;;;;7334106;19;154450;-15
2021/10/04 09:58:17;;;;;;;1.17;0.77;;;;;;;;;;7334095;19;153615;-16
2021/10/04 10:00:56;;;;;;;0.90;0.80;;;;;;;;;;7333538;19;161900;-15
2021/10/04 10:03:27;;;;;;;2.33;0.90;;;;;;;;;;7333298;19;162369;-16
2021/10/04 10:05:58;;;;;;;1.55;0.90;;;;;;;;;;7332530;19;154232;-17
2021/10/04 10:08:28;;;;;;;2.05;1.13;;;;;;;;;;7332374;19;153317;-16
2021/10/04 10:10:58;;;;;;;2.38;0.90;;;;;;;;;;7333404;19;162035;-14
2021/10/04 10:13:28;;;;;;;3.47;1.10;;;;;;;;;;7333118;19;162431;-14
2021/10/04 10:16:06;;;;;;;2.83;1.15;;;;;;;;;;7333482;19;154097;-13
2021/10/04 10:19:08;;;;;;;0.75;0.70;;;;;;;;;;7333280;19;153530;-14
2021/10/04 10:21:37;;;;;;;2.30;0.93;;;;;;;;;;7330814;19;162631;-14
2021/10/04 10:24:07;;;;;;;4.53;0.90;;;;;;;;;;7332971;19;162536;-13
2021/10/04 10:26:39;;;;;;;2.55;1.00;;;;;;;;;;7327993;19;154148;-14
2021/10/04 10:29:13;;;;;;;2.23;1.00;;;;;;;;;;7329394;19;154097;-13
2021/10/04 10:31:48;;;;;;;1.02;0.80;;;;;;;;;;7330742;19;161896;-14
2021/10/04 10:34:27;;;;;;;1.98;0.80;;;;;;;;;;7336231;19;162456;-14
2021/10/04 10:37:04;;;;;;;1.20;0.80;;;;;;;;;;7332801;19;153953;-14
2021/10/04 10:39:33;;;;;;;1.45;0.70;;;;;;;;;;7229428;19;153586;-12
2021/10/04 10:42:15;;;;;;;2.15;0.93;;;;;;;;;;7334335;19;162168;-13
2021/10/04 10:44:56;;;;;;;2.00;0.80;;;;;;;;;;7331057;19;162722;-13
2021/10/04 10:47:36;;;;;;;2.35;1.00;;;;;;;;;;7332707;19;154167;-13
2021/10/04 10:50:14;;;;;;;1.50;0.80;;;;;;;;;;7332483;19;153655;-12
2021/10/04 10:52:46;;;;;;;2.10;1.05;;;;;;;;;;7329060;19;161894;-12
2021/10/04 10:55:36;;;;;;;4.50;1.00;;;;;;;;;;7329285;19;162481;-12
2021/10/04 10:58:14;;;;;;;1.63;0.90;;;;;;;;;;7331751;19;154022;-13
2021/10/04 11:00:45;;;;;;;1.35;0.80;;;;;;;;;;7334904;19;153562;-12
2021/10/04 11:03:15;;;;;;;4.43;0.82;;;;;;;;;;7331555;19;161817;-13
2021/10/04 11:05:43;;;;;;;0.65;0.65;;;;;;;;;;7331289;19;162667;-13
2021/10/04 11:08:15;;;;;;;2.13;0.80;;;;;;;;;;7331812;19;154447;-13
2021/10/04 11:10:49;;;;;;;1.00;0.80;;;;;;;;;;7334147;19;153621;-13
2021/10/04 11:13:29;;;;;;;1.27;0.77;;;;;;;;;;7328823;19;161889;-13
2021/10/04 11:16:25;;;;;;;0.70;0.70;;;;;;;;;;7331224;19;162615;-13
2021/10/04 11:18:54;;;;;;;2.03;0.80;;;;;;;;;;7321657;19;153943;-14
2021/10/04 11:21:25;;;;;;;2.08;0.88;;;;;;;;;;7334799;19;153560;-14
2021/10/04 11:23:56;;;;;;;4.15;1.15;;;;;;;;;;7331164;19;161873;-14
2021/10/04 11:26:24;;;;;;;4.47;0.88;;;;;;;;;;7330704;19;162546;-14
2021/10/04 11:28:58;;;;;;;1.23;0.80;;;;;;;;;;7330410;19;153973;-13
2021/10/04 11:31:28;;;;;;;0.75;0.75;;;;;;;;;;7329252;19;153537;-13
2021/10/04 11:33:59;;;;;;;2.40;0.93;;;;;;;;;;7332349;19;162003;-13
2021/10/04 11:36:33;;;;;;;1.92;0.82;;;;;;;;;;7330747;19;162552;-13
2021/10/04 11:39:12;;;;;;;1.17;0.80;;;;;;;;;;7330151;19;154162;-13
2021/10/04 11:41:52;;;;;;;1.10;0.70;;;;;;;;;;7330946;19;153540;-13
2021/10/04 11:44:25;;;;;;;1.48;0.80;;;;;;;;;;7330368;19;161940;-14
2021/10/04 11:46:59;;;;;;;1.42;1.10;;;;;;;;;;7329705;19;162600;-13
2021/10/04 11:49:31;;;;;;;1.00;0.80;;;;;;;;;;7330409;19;154694;-13
2021/10/04 11:52:03;;;;;;;0.70;0.70;;;;;;;;;;7329580;19;153325;-13
2021/10/04 11:54:41;;;;;;;0.70;0.70;;;;;;;;;;7329798;19;161987;-13
2021/10/04 11:57:19;;;;;;;0.80;0.68;;;;;;;;;;7328349;19;162716;-13
2021/10/04 11:59:54;;;;;;;2.05;0.80;;;;;;;;;;7330074;19;154103;-13
2021/10/04 12:02:28;;;;;;;2.45;0.95;;;;;;;;;;7329933;19;153575;-13
2021/10/04 12:05:17;;;;;;;0.90;0.55;;;;;;;;;;7329269;19;161978;-13
2021/10/04 12:08:04;;;;;;;1.33;0.65;;;;;;;;;;7329197;19;162524;-13
2021/10/04 12:10:44;;;;;;;1.92;0.70;;;;;;;;;;7328483;19;153686;-13
2021/10/04 12:13:17;;;;;;;1.40;0.70;;;;;;;;;;7324961;19;153542;-13
2021/10/04 12:15:46;;;;;;;0.60;0.60;;;;;;;;;;7329045;19;161856;-13
2021/10/04 12:18:19;;;;;;;2.30;0.93;;;;;;;;;;7328894;19;162413;-13
2021/10/04 12:20:49;;;;;;;0.95;0.80;;;;;;;;;;7329285;19;154009;-13
2021/10/04 12:23:23;;;;;;;3.22;0.70;;;;;;;;;;7329429;19;153611;-13
2021/10/04 12:25:53;;;;;;;1.05;0.80;;;;;;;;;;7330140;19;161975;-14
2021/10/04 12:28:22;;;;;;;1.63;0.70;;;;;;;;;;7327557;19;162690;-13
2021/10/04 12:30:51;;;;;;;2.45;0.90;;;;;;;;;;7329367;19;154236;-13
2021/10/04 12:33:21;;;;;;;0.90;0.85;;;;;;;;;;7327919;19;153756;-13
2021/10/04 12:35:50;;;;;;;1.40;0.85;;;;;;;;;;7328755;19;161835;-14
2021/10/04 12:38:18;;;;;;;2.10;0.70;;;;;;;;;;7328701;19;162467;-13
2021/10/04 12:40:58;;;;;;;1.48;0.70;;;;;;;;;;7326025;19;153988;-12
2021/10/04 12:43:29;;;;;;;0.70;0.65;;;;;;;;;;7328640;19;153460;-12
2021/10/04 12:46:05;;;;;;;1.80;0.80;;;;;;;;;;7328505;19;162008;-14
2021/10/04 12:48:38;;;;;;;0.68;0.68;;;;;;;;;;7328062;19;162522;-13
2021/10/04 12:51:19;;;;;;;0.85;0.73;;;;;;;;;;7328700;19;154127;-14
2021/10/04 12:53:58;;;;;;;4.13;0.93;;;;;;;;;;7326585;19;153334;-13
2021/10/04 12:56:32;;;;;;;0.70;0.70;;;;;;;;;;7327000;19;161918;-13
2021/10/04 12:59:05;;;;;;;0.70;0.70;;;;;;;;;;7324565;19;163184;-14
2021/10/04 13:01:35;;;;;;;0.85;0.85;;;;;;;;;;7327906;19;154111;-14
2021/10/04 13:04:08;;;;;;;1.17;0.70;;;;;;;;;;7327548;19;153497;-14
2021/10/04 13:06:40;;;;;;;0.85;0.85;;;;;;;;;;7325380;19;161814;-14
2021/10/04 13:09:09;;;;;;;1.70;0.73;;;;;;;;;;7324954;19;162471;-14
2021/10/04 13:11:44;;;;;;;1.02;0.70;;;;;;;;;;7326422;19;154363;-13
2021/10/04 13:14:12;;;;;;;1.48;0.70;;;;;;;;;;7329031;19;153576;-14
2021/10/04 13:16:40;;;;;;;1.05;0.90;;;;;;;;;;7326516;19;161818;-13
2021/10/04 13:19:08;;;;;;;0.98;0.80;;;;;;;;;;7332422;19;162967;-13
2021/10/04 13:21:36;;;;;;;1.33;0.85;;;;;;;;;;7333151;19;154373;-13
2021/10/04 13:24:05;;;;;;;0.75;0.70;;;;;;;;;;7334410;19;153504;-13
2021/10/04 13:26:33;;;;;;;1.23;0.88;;;;;;;;;;7332870;19;162082;-13
2021/10/04 13:29:04;;;;;;;2.08;0.70;;;;;;;;;;7334308;19;162497;-14
2021/10/04 13:31:33;;;;;;;1.30;0.82;;;;;;;;;;7334830;19;153904;-14
2021/10/04 13:34:01;;;;;;;1.20;0.80;;;;;;;;;;7332796;19;153632;-14
2021/10/04 13:36:29;;;;;;;2.80;0.98;;;;;;;;;;7334482;19;161833;-14
2021/10/04 13:38:57;;;;;;;1.27;0.70;;;;;;;;;;7331627;19;162495;-14
2021/10/04 13:41:25;;;;;;;1.30;0.75;;;;;;;;;;7333185;19;154018;-14
2021/10/04 13:43:53;;;;;;;0.60;0.60;;;;;;;;;;7334459;19;153506;-14
2021/10/04 13:46:22;;;;;;;0.65;0.65;;;;;;;;;;7334033;19;161864;-13
2021/10/04 13:48:51;;;;;;;0.80;0.70;;;;;;;;;;7333792;19;162705;-14
2021/10/04 13:51:20;;;;;;;1.20;0.80;;;;;;;;;;7333277;19;154393;-14
2021/10/04 13:53:50;;;;;;;0.68;0.60;;;;;;;;;;7332827;19;153574;-14
2021/10/04 13:56:21;;;;;;;2.00;0.60;;;;;;;;;;7333540;19;162138;-13
2021/10/04 13:58:52;;;;;;;1.50;0.70;;;;;;;;;;7333641;19;162445;-13
2021/10/04 14:01:21;;;;;;;0.77;0.77;;;;;;;;;;7333880;19;154030;-13
2021/10/04 14:03:50;;;;;;;0.52;0.52;;;;;;;;;;7333672;19;153560;-13
2021/10/04 14:06:18;;;;;;;1.10;0.60;;;;;;;;;;7333373;19;161673;-13
2021/10/04 14:08:47;;;;;;;0.60;0.55;;;;;;;;;;7333112;19;162443;-13
2021/10/04 14:11:15;;;;;;;1.05;0.70;;;;;;;;;;7333782;19;154098;-13
2021/10/04 14:13:43;;;;;;;1.80;0.70;;;;;;;;;;7331966;19;153721;-14
2021/10/04 14:16:10;;;;;;;1.30;0.65;;;;;;;;;;7331962;19;161913;-14
2021/10/04 14:18:38;;;;;;;0.50;0.50;;;;;;;;;;7333198;19;162607;-14
2021/10/04 14:21:06;;;;;;;0.73;0.73;;;;;;;;;;7333394;19;154177;-13
2021/10/04 14:23:35;;;;;;;1.10;0.80;;;;;;;;;;7333610;19;153515;-14
2021/10/04 14:26:03;;;;;;;0.73;0.68;;;;;;;;;;7331846;19;161939;-14
2021/10/04 14:28:37;;;;;;;0.68;0.68;;;;;;;;;;7332557;19;162568;-14
2021/10/04 14:31:06;;;;;;;0.70;0.65;;;;;;;;;;7332873;19;153985;-14
2021/10/04 14:33:35;;;;;;;0.93;0.70;;;;;;;;;;7331852;19;153545;-14
2021/10/04 14:36:04;;;;;;;0.77;0.65;;;;;;;;;;7332519;19;161987;-14
2021/10/04 14:38:32;;;;;;;0.80;0.52;;;;;;;;;;7332398;19;162516;-14
2021/10/04 14:41:00;;;;;;;2.38;0.70;;;;;;;;;;7329986;19;154061;-13
2021/10/04 14:43:28;;;;;;;1.10;0.80;;;;;;;;;;7332750;19;153550;-13
2021/10/04 14:45:56;;;;;;;0.70;0.60;;;;;;;;;;7332073;19;161823;-13
2021/10/04 14:48:24;;;;;;;0.82;0.75;;;;;;;;;;7331949;19;163300;-14
2021/10/04 14:50:52;;;;;;;0.57;0.57;;;;;;;;;;7332783;19;154017;-14
2021/10/04 14:53:20;;;;;;;0.70;0.60;;;;;;;;;;7331720;19;153744;-14
2021/10/04 14:55:58;;;;;;;0.50;0.50;;;;;;;;;;7331882;19;162024;-14
2021/10/04 14:58:26;;;;;;;0.75;0.75;;;;;;;;;;7331719;19;162451;-14
2021/10/04 15:00:59;;;;;;;0.75;0.68;;;;;;;;;;7332061;19;154040;-14
2021/10/04 15:03:32;;;;;;;0.60;0.60;;;;;;;;;;7332088;19;153523;-13
2021/10/04 15:06:00;;;;;;;0.65;0.50;;;;;;;;;;7331514;19;161859;-14
2021/10/04 15:08:28;;;;;;;0.95;0.77;;;;;;;;;;7331526;19;162531;-14
2021/10/04 15:10:56;;;;;;;0.60;0.60;;;;;;;;;;7331781;19;153999;-12
2021/10/04 15:13:24;;;;;;;0.60;0.57;;;;;;;;;;7329613;19;153580;-12
2021/10/04 15:15:52;;;;;;;0.73;0.63;;;;;;;;;;7330194;19;161907;-14
2021/10/04 15:18:21;;;;;;;0.60;0.60;;;;;;;;;;7329884;19;162528;-14
2021/10/04 15:20:49;;;;;;;0.60;0.60;;;;;;;;;;7331333;19;153847;-19
2021/10/04 15:23:17;;;;;;;0.82;0.70;;;;;;;;;;7331423;19;153770;-14
2021/10/04 15:25:44;;;;;;;0.80;0.60;;;;;;;;;;7329642;19;161886;-13
2021/10/04 15:28:12;;;;;;;0.60;0.60;;;;;;;;;;7330788;19;162808;-14
2021/10/04 15:30:41;;;;;;;1.80;0.77;;;;;;;;;;7329894;19;154389;-14
2021/10/04 15:33:09;;;;;;;0.60;0.60;;;;;;;;;;7330861;19;153897;-14
2021/10/04 15:35:37;;;;;;;0.43;0.43;;;;;;;;;;7329270;19;161928;-14
2021/10/04 15:38:05;;;;;;;0.55;0.55;;;;;;;;;;7330355;19;162532;-14
2021/10/04 15:40:35;;;;;;;0.75;0.60;;;;;;;;;;7327136;19;154127;-14
2021/10/04 15:43:03;;;;;;;1.58;0.65;;;;;;;;;;7329660;19;153617;-13
2021/10/04 15:45:31;;;;;;;2.63;0.85;;;;;;;;;;7330298;19;161865;-13
2021/10/04 15:47:59;;;;;;;1.92;0.60;;;;;;;;;;7328950;19;162527;-13
2021/10/04 15:50:27;;;;;;;1.50;0.65;;;;;;;;;;7330602;19;154104;-12
2021/10/04 15:52:56;;;;;;;1.55;0.70;;;;;;;;;;7329786;19;153556;-13
2021/10/04 15:55:24;;;;;;;1.90;0.85;;;;;;;;;;7324721;19;161895;-14
2021/10/04 15:57:52;;;;;;;1.70;0.75;;;;;;;;;;7326890;19;162528;-14
2021/10/04 16:00:20;;;;;;;0.85;0.80;;;;;;;;;;7330119;19;153963;-14
2021/10/04 16:02:48;;;;;;;1.05;0.80;;;;;;;;;;7329822;19;153734;-14
2021/10/04 16:05:18;;;;;;;1.33;0.60;;;;;;;;;;7329260;19;161870;-14
2021/10/04 16:07:53;;;;;;;2.30;0.75;;;;;;;;;;7329606;19;162641;-13
2021/10/04 16:10:22;;;;;;;2.00;1.10;;;;;;;;;;7329775;19;154234;-14
2021/10/04 16:12:51;;;;;;;2.08;0.77;;;;;;;;;;7329388;19;153723;-14
2021/10/04 16:15:18;;;;;;;2.75;0.93;;;;;;;;;;7327160;19;162097;-14
2021/10/04 16:17:47;;;;;;;1.63;0.98;;;;;;;;;;7328002;19;162505;-14
2021/10/04 16:20:15;;;;;;;2.20;1.42;;;;;;;;;;7328374;19;154695;-14
2021/10/04 16:22:43;;;;;;;0.85;0.60;;;;;;;;;;7329445;19;153343;-14
2021/10/04 16:25:11;;;;;;;2.35;1.27;;;;;;;;;;7328843;19;161993;-15
2021/10/04 16:27:39;;;;;;;1.50;1.00;;;;;;;;;;7329025;19;162557;-14
2021/10/04 16:30:07;;;;;;;4.03;1.20;;;;;;;;;;7328056;19;154120;-13
2021/10/04 16:32:35;;;;;;;0.90;0.85;;;;;;;;;;7329176;19;153654;-14
2021/10/04 16:35:03;;;;;;;1.95;0.80;;;;;;;;;;7326857;19;162028;-14
2021/10/04 16:37:31;;;;;;;1.25;0.90;;;;;;;;;;7328879;19;162547;-14
2021/10/04 16:39:59;;;;;;;1.00;0.80;;;;;;;;;;7327532;19;154190;-11
2021/10/04 16:42:27;;;;;;;2.33;0.90;;;;;;;;;;7328811;19;154010;-13
2021/10/04 16:44:56;;;;;;;2.05;1.10;;;;;;;;;;7328469;19;161986;-14
2021/10/04 16:47:24;;;;;;;1.60;0.80;;;;;;;;;;7328643;19;162660;-14
2021/10/04 16:49:52;;;;;;;2.45;1.10;;;;;;;;;;7328833;19;154102;-13
2021/10/04 16:52:20;;;;;;;1.20;0.70;;;;;;;;;;7328791;19;153542;-13
2021/10/04 16:54:49;;;;;;;1.83;0.98;;;;;;;;;;7333920;19;161803;-13
2021/10/04 16:57:17;;;;;;;2.13;0.90;;;;;;;;;;7334853;19;162569;-13
2021/10/04 16:59:46;;;;;;;5.15;1.35;;;;;;;;;;7335430;19;154467;-13
2021/10/04 17:02:14;;;;;;;2.03;1.00;;;;;;;;;;7335345;19;153528;-14
2021/10/04 17:04:42;;;;;;;2.03;0.90;;;;;;;;;;7334863;19;161810;-13
2021/10/04 17:07:10;;;;;;;3.72;1.25;;;;;;;;;;7334925;19;162663;-13
2021/10/04 17:09:38;;;;;;;20.98;8.02;;;;;;;;;;7335285;19;154056;-16
2021/10/04 17:12:06;;;;;;;9.30;3.70;;;;;;;;;;7334207;19;153456;-12
2021/10/04 17:14:34;;;;;;;14.30;3.95;;;;;;;;;;7333793;19;161820;-12
2021/10/04 17:17:02;;;;;;;12.32;2.75;;;;;;;;;;7334613;19;162419;-13
2021/10/04 17:19:30;;;;;;;4.50;1.85;;;;;;;;;;7335222;19;153923;-12
2021/10/04 17:21:58;;;;;;;3.92;1.50;;;;;;;;;;7334853;19;153801;-11
2021/10/04 17:24:27;;;;;;;4.88;1.50;;;;;;;;;;7334837;19;161817;-12
2021/10/04 17:26:55;;;;;;;1.92;1.15;;;;;;;;;;7334472;19;162658;-12
2021/10/04 17:29:23;;;;;;;1.17;1.00;;;;;;;;;;7334832;19;154223;-13
2021/10/04 17:31:52;;;;;;;1.20;0.80;;;;;;;;;;7334782;19;153612;-13
2021/10/04 17:34:20;;;;;;;2.42;1.08;;;;;;;;;;7333632;19;161941;-11
2021/10/04 17:36:48;;;;;;;1.45;0.98;;;;;;;;;;7333978;19;162981;-11
2021/10/04 17:39:16;;;;;;;0.80;0.80;;;;;;;;;;7332828;19;154233;-12
2021/10/04 17:41:44;;;;;;;1.27;0.80;;;;;;;;;;7334445;19;153588;-11
2021/10/04 17:44:12;;;;;;;1.50;0.93;;;;;;;;;;7332776;19;161973;-11
2021/10/04 17:46:42;;;;;;;1.45;1.00;;;;;;;;;;7333628;19;163684;-12
2021/10/04 17:49:13;;;;;;;0.90;0.90;;;;;;;;;;7334150;19;153760;-12
2021/10/04 17:51:41;;;;;;;0.55;0.52;;;;;;;;;;7334130;19;153531;-11
2021/10/04 17:54:09;;;;;;;0.77;0.77;;;;;;;;;;7333208;19;162343;-11
2021/10/04 17:56:37;;;;;;;1.58;0.70;;;;;;;;;;7333705;19;162457;-11
2021/10/04 17:59:05;;;;;;;2.03;1.27;;;;;;;;;;7333985;19;153999;-11
2021/10/04 18:01:33;;;;;;;1.10;0.82;;;;;;;;;;7332750;19;153636;-11
2021/10/04 18:04:02;;;;;;;1.38;0.95;;;;;;;;;;7332264;19;161827;-12
2021/10/04 18:06:30;;;;;;;2.70;1.55;;;;;;;;;;7333229;19;162473;-11
2021/10/04 18:08:58;;;;;;;2.45;1.48;;;;;;;;;;7333719;19;154022;-11
2021/10/04 18:11:27;;;;;;;2.38;1.58;;;;;;;;;;7333694;19;153686;-11
2021/10/04 18:13:55;;;;;;;2.80;1.50;;;;;;;;;;7333170;19;161798;-11
2021/10/04 18:16:23;;;;;;;2.05;1.50;;;;;;;;;;7330673;19;162633;-12
2021/10/04 18:18:57;;;;;;;2.00;1.70;;;;;;;;;;7333424;19;154256;-11
2021/10/04 18:21:26;;;;;;;2.37;1.60;;;;;;;;;;7333246;19;153542;-11
2021/10/04 18:23:54;;;;;;;1.75;1.45;;;;;;;;;;7332457;19;161813;-11
2021/10/04 18:26:23;;;;;;;1.50;1.40;;;;;;;;;;7332611;19;162625;-11
2021/10/04 18:28:50;;;;;;;1.67;1.50;;;;;;;;;;7332884;19;154025;-11
2021/10/04 18:31:19;;;;;;;1.92;1.20;;;;;;;;;;7333396;19;153785;-11
2021/10/04 18:33:48;;;;;;;1.88;1.40;;;;;;;;;;7332368;19;161872;-11
2021/10/04 18:36:16;;;;;;;1.40;1.30;;;;;;;;;;7329001;19;162464;-12
2021/10/04 18:38:44;;;;;;;1.23;1.13;;;;;;;;;;7332696;19;154421;-11
2021/10/04 18:41:13;;;;;;;1.88;1.40;;;;;;;;;;7332512;19;153513;-11
2021/10/04 18:43:41;;;;;;;1.30;1.20;;;;;;;;;;7332005;19;161766;-11
2021/10/04 18:46:09;;;;;;;2.03;1.20;;;;;;;;;;7332092;19;162959;-12
2021/10/04 18:48:39;;;;;;;2.40;1.20;;;;;;;;;;7332334;19;154024;-12
2021/10/04 18:51:07;;;;;;;2.58;1.35;;;;;;;;;;7332394;19;153421;-14
2021/10/04 18:53:36;;;;;;;1.80;1.20;;;;;;;;;;7331988;19;161781;-12
2021/10/04 18:56:04;;;;;;;2.28;1.30;;;;;;;;;;7329836;19;163923;-11
2021/10/04 18:58:33;;;;;;;1.60;1.35;;;;;;;;;;7332367;19;154771;-12
2021/10/04 19:01:01;;;;;;;2.10;1.25;;;;;;;;;;7330900;19;153537;-11
2021/10/04 19:03:29;;;;;;;2.47;1.63;;;;;;;;;;7331681;19;161956;-11
2021/10/04 19:05:59;;;;;;;1.58;1.35;;;;;;;;;;7331599;19;162586;-12
2021/10/04 19:08:28;;;;;;;2.17;1.75;;;;;;;;;;7332039;19;153780;-12
2021/10/04 19:10:56;;;;;;;1.65;1.52;;;;;;;;;;7331879;19;153379;-12
2021/10/04 19:13:24;;;;;;;10.43;9.40;;;;;;;;;;7331421;19;162329;-12
2021/10/04 19:15:52;;;;;;;18.02;16.33;;;;;;;;;;7327531;19;162583;-13
2021/10/04 19:18:20;;;;;;;26.70;24.10;;;;;;;;;;7331605;19;153947;-12
2021/10/04 19:20:48;;;;;;;38.60;34.88;;;;;;;;;;7331412;19;153721;-12
2021/10/04 19:23:16;;;;;;;32.15;29.05;;;;;;;;;;7331038;19;161577;-13
2021/10/04 19:25:44;;;;;;;30.60;27.70;;;;;;;;;;7329963;19;162698;-12
2021/10/04 19:28:12;;;;;;;35.72;32.35;;;;;;;;;;7331495;19;154049;-12
2021/10/04 19:30:40;;;;;;;35.50;32.33;;;;;;;;;;7331207;19;153610;-12
2021/10/04 19:33:08;;;;;;;32.30;29.20;;;;;;;;;;7330945;19;161908;-12
2021/10/04 19:35:38;;;;;;;33.15;30.02;;;;;;;;;;7329431;19;162711;-13
2021/10/04 19:38:06;;;;;;;26.55;24.05;;;;;;;;;;7330878;19;154265;-13
2021/10/04 19:40:34;;;;;;;25.15;22.60;;;;;;;;;;7328448;19;153763;-12
2021/10/04 19:43:03;;;;;;;22.65;20.55;;;;;;;;;;7330620;19;162100;-12
2021/10/04 19:45:31;;;;;;;21.30;19.27;;;;;;;;;;7329409;19;162468;-12
2021/10/04 19:47:59;;;;;;;20.70;18.63;;;;;;;;;;7330849;19;153974;-12
2021/10/04 19:50:27;;;;;;;20.67;18.67;;;;;;;;;;7330302;19;153589;-12
2021/10/04 19:52:55;;;;;;;21.42;19.38;;;;;;;;;;7330059;19;161977;-14
2021/10/04 19:55:23;;;;;;;18.52;16.58;;;;;;;;;;7319900;19;162526;-13
2021/10/04 19:57:51;;;;;;;19.40;16.95;;;;;;;;;;7332079;19;153989;-10
2021/10/04 20:00:20;;;;;;;19.20;17.30;;;;;;;;;;7334209;19;153554;-14
2021/10/04 20:02:50;;;;;;;18.95;17.05;;;;;;;;;;7328329;19;162515;-14
2021/10/04 20:05:20;;;;;;;18.50;16.63;;;;;;;;;;7329180;19;162776;-15
2021/10/04 20:07:48;;;;;;;18.05;16.35;;;;;;;;;;7330201;19;154113;-14
2021/10/04 20:10:17;;;;;;;19.85;17.90;;;;;;;;;;7331839;19;153572;-13
2021/10/04 20:12:45;;;;;;;20.17;18.10;;;;;;;;;;7331977;19;162088;-13
2021/10/04 20:15:13;;;;;;;18.52;16.63;;;;;;;;;;7327478;19;162431;-13
2021/10/04 20:17:41;;;;;;;18.67;16.88;;;;;;;;;;7330031;19;154107;-13
2021/10/04 20:20:10;;;;;;;16.55;15.02;;;;;;;;;;7328635;19;153631;-14
2021/10/04 20:22:40;;;;;;;16.60;15.20;;;;;;;;;;7332775;19;161564;-13
2021/10/04 20:25:11;;;;;;;16.90;15.40;;;;;;;;;;7327990;19;162708;-13
2021/10/04 20:27:39;;;;;;;16.08;14.57;;;;;;;;;;7328034;19;153602;-14
2021/10/04 20:30:09;;;;;;;17.50;15.80;;;;;;;;;;7327356;19;153804;-13
2021/10/04 20:32:37;;;;;;;17.15;15.45;;;;;;;;;;7330003;19;161864;-14
2021/10/04 20:35:06;;;;;;;16.73;15.05;;;;;;;;;;7329791;19;162297;-14
2021/10/04 20:37:34;;;;;;;15.88;14.27;;;;;;;;;;7332315;19;153973;-13
2021/10/04 20:40:03;;;;;;;15.02;13.52;;;;;;;;;;7323275;19;153603;-13
2021/10/04 20:42:31;;;;;;;16.08;14.48;;;;;;;;;;7331214;19;163172;-13
2021/10/04 20:44:59;;;;;;;16.30;14.35;;;;;;;;;;7329881;19;162778;-13
2021/10/04 20:47:27;;;;;;;15.00;13.70;;;;;;;;;;7331983;19;153975;-13
2021/10/04 20:49:57;;;;;;;14.65;13.35;;;;;;;;;;7331058;19;153640;-13
2021/10/04 20:52:25;;;;;;;15.40;13.98;;;;;;;;;;7331592;19;161714;-14
2021/10/04 20:54:53;;;;;;;14.52;13.20;;;;;;;;;;7307507;19;162756;-12
2021/10/04 20:57:22;;;;;;;14.52;13.23;;;;;;;;;;7327649;19;153783;-13
2021/10/04 20:59:49;;;;;;;14.52;13.13;;;;;;;;;;7313317;19;153385;-12
2021/10/04 21:02:18;;;;;;;14.32;12.93;;;;;;;;;;7317201;19;162243;-13
2021/10/04 21:04:55;;;;;;;13.85;12.57;;;;;;;;;;7328834;19;163014;-13
2021/10/04 21:07:24;;;;;;;14.13;12.82;;;;;;;;;;7326970;19;154352;-13
2021/10/04 21:09:53;;;;;;;13.77;12.48;;;;;;;;;;7322880;19;153555;-13
2021/10/04 21:12:21;;;;;;;14.45;13.05;;;;;;;;;;7329880;19;162069;-14
2021/10/04 21:14:50;;;;;;;14.48;13.07;;;;;;;;;;7326718;19;162480;-13
2021/10/04 21:17:19;;;;;;;12.57;11.48;;;;;;;;;;7324419;19;154035;-11
2021/10/04 21:19:48;;;;;;;13.20;12.02;;;;;;;;;;7325968;19;153463;-10
2021/10/04 21:22:24;;;;;;;13.18;11.98;;;;;;;;;;7328740;19;161818;-13
2021/10/04 21:24:53;;;;;;;13.73;12.43;;;;;;;;;;7330310;19;162410;-11
2021/10/04 21:27:23;;;;;;;13.75;12.38;;;;;;;;;;7330754;19;153873;-23
2021/10/04 21:29:51;;;;;;;13.20;11.98;;;;;;;;;;7328343;19;153716;-12
2021/10/04 21:32:19;;;;;;;13.80;12.20;;;;;;;;;;7326393;19;162292;-14
2021/10/04 21:34:48;;;;;;;14.98;12.00;;;;;;;;;;7330264;19;162485;-14
2021/10/04 21:37:16;;;;;;;13.18;11.77;;;;;;;;;;7328551;19;153961;-13
2021/10/04 21:39:44;;;;;;;12.60;11.15;;;;;;;;;;7333033;19;153779;-13
2021/10/04 21:42:12;;;;;;;12.68;11.13;;;;;;;;;;7333182;19;161943;-13
2021/10/04 21:44:40;;;;;;;11.52;10.52;;;;;;;;;;7335838;19;162510;-12
2021/10/04 21:47:08;;;;;;;11.57;10.38;;;;;;;;;;7336407;19;154051;-17
2021/10/04 21:49:36;;;;;;;11.88;10.55;;;;;;;;;;7336737;19;153569;-14
2021/10/04 21:52:05;;;;;;;12.25;11.05;;;;;;;;;;7336503;19;162500;-14
2021/10/04 21:54:32;;;;;;;11.52;10.52;;;;;;;;;;7336798;19;162805;-16
2021/10/04 21:57:00;;;;;;;11.05;10.00;;;;;;;;;;7332557;19;154045;-17
2021/10/04 21:59:33;;;;;;;11.27;10.18;;;;;;;;;;7335702;19;153542;-14
2021/10/04 22:02:27;;;;;;;11.30;9.77;;;;;;;;;;7336556;19;161562;-15
2021/10/04 22:10:56;;;;;;;10.80;9.80;;;;;;;;;;7336785;19;154250;-13
2021/10/04 22:13:28;;;;;;;10.60;9.70;;;;;;;;;;7336173;19;161821;-14
2021/10/04 22:15:58;;;;;;;11.57;10.13;;;;;;;;;;7335481;19;162623;-15
2021/10/04 22:18:27;;;;;;;9.98;8.95;;;;;;;;;;7334975;19;153985;-14
2021/10/04 22:20:56;;;;;;;9.98;9.07;;;;;;;;;;7335494;19;153561;-15
2021/10/04 22:23:25;;;;;;;10.63;9.63;;;;;;;;;;7335541;19;161904;-17
2021/10/04 22:25:53;;;;;;;10.45;9.45;;;;;;;;;;7333900;19;162995;-16
2021/10/04 22:28:22;;;;;;;11.15;9.50;;;;;;;;;;7336227;19;154016;-16
2021/10/04 22:30:49;;;;;;;10.05;9.05;;;;;;;;;;7335390;19;153842;-18
2021/10/04 22:33:18;;;;;;;10.40;9.40;;;;;;;;;;7333965;19;162049;-17
2021/10/04 22:35:46;;;;;;;9.52;8.63;;;;;;;;;;7335521;19;162589;-13
2021/10/04 22:38:14;;;;;;;10.15;8.50;;;;;;;;;;7335174;19;154070;-16
2021/10/04 22:40:45;;;;;;;9.57;8.68;;;;;;;;;;7333758;19;153847;-13
2021/10/04 22:43:14;;;;;;;10.02;9.02;;;;;;;;;;7334629;19;162003;-16
2021/10/04 22:45:42;;;;;;;10.43;9.02;;;;;;;;;;7335243;19;162612;-15
2021/10/04 22:48:10;;;;;;;9.00;8.20;;;;;;;;;;7335324;19;154099;-21
2021/10/04 22:50:39;;;;;;;8.70;8.00;;;;;;;;;;7335297;19;154003;-13
2021/10/04 22:53:09;;;;;;;9.73;8.80;;;;;;;;;;7327196;19;161919;-32
2021/10/04 22:55:38;;;;;;;9.10;8.20;;;;;;;;;;7330609;19;162614;-13
2021/10/04 22:58:06;;;;;;;9.02;8.20;;;;;;;;;;7329056;19;154130;-15
2021/10/04 23:00:35;;;;;;;8.88;8.07;;;;;;;;;;7331623;19;153668;-15
2021/10/04 23:03:04;;;;;;;8.98;8.02;;;;;;;;;;7333742;19;161607;-16
2021/10/04 23:05:33;;;;;;;9.10;8.13;;;;;;;;;;7331306;19;162665;-13
2021/10/04 23:08:01;;;;;;;8.85;8.02;;;;;;;;;;7331646;19;154011;-14
2021/10/04 23:10:29;;;;;;;8.38;7.60;;;;;;;;;;7331315;19;153627;-12
2021/10/04 23:12:58;;;;;;;7.65;7.03;;;;;;;;;;7331028;19;161882;-13
2021/10/04 23:15:26;;;;;;;8.05;7.28;;;;;;;;;;7330915;19;162791;-14
2021/10/04 23:17:55;;;;;;;8.30;7.50;;;;;;;;;;7329121;19;154038;-17
2021/10/04 23:20:23;;;;;;;8.50;7.70;;;;;;;;;;7331158;19;153623;-14
2021/10/04 23:22:51;;;;;;;8.07;7.28;;;;;;;;;;7329808;19;162167;-15
2021/10/04 23:25:19;;;;;;;7.90;6.93;;;;;;;;;;7331217;19;162478;-15
2021/10/04 23:27:47;;;;;;;7.95;7.20;;;;;;;;;;7331224;19;154089;-14
2021/10/04 23:30:15;;;;;;;7.72;7.13;;;;;;;;;;7330139;19;153611;-17